createdAt,value
2022-12-06T00:01:33.294Z,0.01
2022-12-06T00:04:03.272Z,0.02
2022-12-06T00:06:37.752Z,0.06
2022-12-06T00:09:06.081Z,0.11
2022-12-06T00:11:35.855Z,-0.04
2022-12-06T00:14:06.264Z,-0.15
2022-12-06T00:16:35.617Z,-0.02
2022-12-06T00:19:04.845Z,0.02
2022-12-06T00:21:35.415Z,0.06
2022-12-06T00:24:06.120Z,0.10
2022-12-06T00:26:36.833Z,-0.01
2022-12-06T00:29:06.212Z,0.10
2022-12-06T00:31:35.824Z,-0.11
2022-12-06T00:34:04.769Z,0.11
2022-12-06T00:36:35.895Z,0.14
2022-12-06T00:39:06.912Z,0.18
2022-12-06T00:41:35.886Z,-0.42
2022-12-06T00:44:04.468Z,0.21
2022-12-06T00:46:34.297Z,0.15
2022-12-06T00:49:03.715Z,0.12
2022-12-06T00:51:35.275Z,0.23
2022-12-06T00:54:04.012Z,-0.03
2022-12-06T00:56:33.142Z,0.22
2022-12-06T00:59:01.230Z,0.29
2022-12-06T01:01:33.579Z,0.25
2022-12-06T01:04:03.917Z,-0.14
2022-12-06T01:06:37.746Z,0.14
2022-12-06T01:09:08.210Z,0.12
2022-12-06T01:11:36.911Z,0.11
2022-12-06T01:14:06.149Z,0.18
2022-12-06T01:16:35.195Z,0.23
2022-12-06T01:19:06.475Z,0.16
2022-12-06T01:21:35.076Z,0.20
2022-12-06T01:24:04.791Z,0.24
2022-12-06T01:26:35.663Z,0.14
2022-12-06T01:29:04.462Z,0.23
2022-12-06T01:31:38.265Z,0.21
2022-12-06T01:34:08.368Z,0.25
2022-12-06T01:36:36.775Z,0.28
2022-12-06T01:39:10.761Z,0.13
2022-12-06T01:41:40.705Z,0.25
2022-12-06T01:44:09.333Z,0.25
2022-12-06T01:46:41.007Z,0.28
2022-12-06T01:49:20.159Z,-0.47
2022-12-06T01:51:50.701Z,0.26
2022-12-06T01:54:22.079Z,0.16
2022-12-06T01:56:52.516Z,-0.19
2022-12-06T01:59:21.278Z,-0.11
2022-12-06T02:01:50.013Z,0.24
2022-12-06T02:04:20.204Z,0.19
2022-12-06T02:06:48.996Z,0.23
2022-12-06T02:09:18.738Z,0.12
2022-12-06T02:11:48.812Z,0.30
2022-12-06T02:14:21.814Z,0.29
2022-12-06T02:17:04.657Z,0.30
2022-12-06T02:19:58.474Z,0.32
2022-12-06T02:22:35.589Z,0.27
2022-12-06T02:25:18.933Z,0.23
2022-12-06T02:28:08.805Z,0.21
2022-12-06T02:30:47.371Z,0.20
2022-12-06T02:33:23.228Z,0.27
2022-12-06T02:35:58.434Z,0.28
2022-12-06T02:38:34.440Z,0.21
2022-12-06T02:41:09.125Z,0.17
2022-12-06T02:43:43.578Z,0.30
2022-12-06T02:46:16.490Z,0.31
2022-12-06T02:48:47.535Z,0.33
2022-12-06T02:51:18.292Z,0.34
2022-12-06T02:53:54.410Z,0.36
2022-12-06T02:56:22.666Z,0.29
2022-12-06T02:58:51.079Z,0.34
2022-12-06T03:01:23.973Z,0.23
2022-12-06T03:04:31.772Z,0.30
2022-12-06T03:07:11.709Z,0.40
2022-12-06T03:09:54.935Z,0.36
2022-12-06T03:12:32.014Z,0.28
2022-12-06T03:15:09.871Z,0.25
2022-12-06T03:17:44.991Z,0.29
2022-12-06T03:20:20.448Z,0.16
2022-12-06T03:22:54.859Z,0.32
2022-12-06T03:25:23.540Z,0.22
2022-12-06T03:27:53.787Z,0.32
2022-12-06T03:34:11.366Z,0.36
2022-12-06T03:36:42.476Z,0.25
2022-12-06T03:39:11.482Z,0.37
2022-12-06T03:41:47.118Z,0.38
2022-12-06T03:44:15.492Z,0.36
2022-12-06T03:46:50.835Z,0.40
2022-12-06T03:49:25.890Z,0.33
2022-12-06T03:51:54.670Z,0.37
2022-12-06T03:54:23.106Z,0.40
2022-12-06T03:56:51.691Z,0.33
2022-12-06T03:59:19.961Z,0.34
2022-12-06T04:01:48.441Z,0.27
2022-12-06T04:04:16.795Z,0.32
2022-12-06T04:06:46.867Z,0.34
2022-12-06T04:09:32.705Z,0.34
2022-12-06T04:12:01.489Z,0.27
2022-12-06T04:14:32.502Z,0.40
2022-12-06T04:17:18.271Z,0.36
2022-12-06T04:19:50.752Z,0.32
2022-12-06T04:22:39.510Z,0.40
2022-12-06T04:25:08.298Z,0.38
2022-12-06T04:27:54.542Z,0.31
2022-12-06T04:30:40.052Z,0.40
2022-12-06T04:33:25.797Z,0.42
2022-12-06T04:36:14.807Z,0.40
2022-12-06T04:38:45.099Z,0.43
2022-12-06T04:41:35.392Z,0.43
2022-12-06T04:44:03.625Z,0.30
2022-12-06T04:46:32.350Z,0.32
2022-12-06T04:49:01.197Z,0.26
2022-12-06T04:51:29.397Z,0.31
2022-12-06T04:53:59.163Z,0.30
2022-12-06T04:56:27.111Z,0.30
2022-12-06T04:58:55.704Z,0.31
2022-12-06T05:01:23.833Z,0.34
2022-12-06T05:03:52.409Z,0.32
2022-12-06T05:06:21.047Z,0.38
2022-12-06T05:08:49.496Z,0.30
2022-12-06T05:11:18.990Z,0.31
2022-12-06T05:13:47.621Z,0.35
2022-12-06T05:16:15.889Z,0.39
2022-12-06T05:18:44.316Z,0.39
2022-12-06T05:21:15.123Z,0.40
2022-12-06T05:23:43.707Z,0.41
2022-12-06T05:26:14.497Z,0.45
2022-12-06T05:28:45.481Z,0.52
2022-12-06T05:31:14.378Z,0.48
2022-12-06T05:33:43.098Z,0.13
2022-12-06T05:36:13.965Z,0.40
2022-12-06T05:38:45.811Z,0.40
2022-12-06T05:41:18.923Z,0.22
2022-12-06T05:43:48.979Z,0.54
2022-12-06T05:46:17.434Z,0.54
2022-12-06T05:48:46.077Z,0.49
2022-12-06T05:51:14.334Z,0.45
2022-12-06T05:53:42.719Z,0.52
2022-12-06T05:56:13.266Z,0.34
2022-12-06T05:58:41.915Z,0.53
2022-12-06T06:01:11.595Z,0.28
2022-12-06T06:03:45.732Z,0.52
2022-12-06T06:06:15.950Z,0.54
2022-12-06T06:08:44.378Z,0.54
2022-12-06T06:11:12.474Z,0.58
2022-12-06T06:13:40.833Z,0.25
2022-12-06T06:16:09.442Z,0.46
2022-12-06T06:18:39.690Z,0.39
2022-12-06T06:21:07.813Z,0.42
2022-12-06T06:23:36.288Z,0.42
2022-12-06T06:26:08.738Z,0.11
2022-12-06T06:28:37.396Z,0.39
2022-12-06T06:31:06.504Z,0.29
2022-12-06T06:33:36.216Z,0.38
2022-12-06T06:36:05.794Z,0.41
2022-12-06T06:38:34.363Z,0.38
2022-12-06T06:41:03.176Z,0.22
2022-12-06T06:43:31.767Z,0.43
2022-12-06T06:46:01.770Z,0.33
2022-12-06T06:48:32.023Z,0.44
2022-12-06T06:51:05.738Z,0.46
2022-12-06T06:53:34.495Z,-0.01
2022-12-06T06:56:02.969Z,0.46
2022-12-06T06:58:31.456Z,0.45
2022-12-06T07:01:01.282Z,0.41
2022-12-06T07:03:30.148Z,0.53
2022-12-06T07:06:01.012Z,0.53
2022-12-06T07:08:32.425Z,0.16
2022-12-06T07:11:01.468Z,0.58
2022-12-06T07:13:30.896Z,0.62
2022-12-06T07:15:59.740Z,0.62
2022-12-06T07:18:28.463Z,0.65
2022-12-06T07:21:01.654Z,0.62
2022-12-06T07:23:32.243Z,0.64
2022-12-06T07:26:02.201Z,0.66
2022-12-06T07:28:30.707Z,0.69
2022-12-06T07:30:59.164Z,0.72
2022-12-06T07:33:27.579Z,0.71
2022-12-06T07:36:12.864Z,0.77
2022-12-06T07:38:43.858Z,0.77
2022-12-06T07:41:31.101Z,0.85
2022-12-06T07:44:18.800Z,0.91
2022-12-06T07:46:48.049Z,0.90
2022-12-06T07:49:17.642Z,0.94
2022-12-06T07:51:46.696Z,0.64
2022-12-06T07:54:18.062Z,0.99
2022-12-06T07:56:46.167Z,0.92
2022-12-06T07:59:14.847Z,1.08
2022-12-06T08:01:43.386Z,0.83
2022-12-06T08:04:12.274Z,1.09
2022-12-06T08:06:40.961Z,1.17
2022-12-06T08:09:09.590Z,1.23
2022-12-06T08:11:41.773Z,1.22
2022-12-06T08:14:11.002Z,1.30
2022-12-06T08:16:40.735Z,1.28
2022-12-06T08:19:09.800Z,1.25
2022-12-06T08:21:38.195Z,1.23
2022-12-06T08:24:07.069Z,1.26
2022-12-06T08:26:35.733Z,1.30
2022-12-06T08:29:05.713Z,1.31
2022-12-06T08:31:35.154Z,1.28
2022-12-06T08:34:03.905Z,1.31
2022-12-06T08:36:32.305Z,1.40
2022-12-06T08:39:01.726Z,1.42
2022-12-06T08:41:47.635Z,1.43
2022-12-06T08:44:18.539Z,1.48
2022-12-06T08:46:47.132Z,1.49
2022-12-06T08:49:17.654Z,1.52
2022-12-06T08:51:46.913Z,1.55
2022-12-06T08:54:16.280Z,1.56
2022-12-06T08:56:44.398Z,1.55
2022-12-06T08:59:12.799Z,1.58
2022-12-06T09:01:42.901Z,1.66
2022-12-06T09:04:12.557Z,1.74
2022-12-06T09:06:42.374Z,1.51
2022-12-06T09:09:12.203Z,1.79
2022-12-06T09:11:41.763Z,1.84
2022-12-06T09:14:19.577Z,1.80
2022-12-06T09:16:52.512Z,1.74
2022-12-06T09:19:21.752Z,1.93
2022-12-06T09:21:50.243Z,1.99
2022-12-06T09:24:20.367Z,2.08
2022-12-06T09:26:49.132Z,2.12
2022-12-06T09:29:19.095Z,2.11
2022-12-06T09:31:47.513Z,2.05
2022-12-06T09:34:18.193Z,2.17
2022-12-06T09:36:49.431Z,1.93
2022-12-06T09:39:21.806Z,2.26
2022-12-06T09:42:18.397Z,2.23
2022-12-06T09:45:01.669Z,2.22
2022-12-06T09:47:43.556Z,2.12
2022-12-06T09:50:22.888Z,2.10
2022-12-06T09:53:08.224Z,2.14
2022-12-06T09:55:48.493Z,2.10
2022-12-06T09:58:27.955Z,2.14
2022-12-06T10:01:09.582Z,2.11
2022-12-06T10:03:53.141Z,2.07
2022-12-06T10:06:26.547Z,2.07
2022-12-06T10:09:11.742Z,1.98
2022-12-06T10:11:52.531Z,1.84
2022-12-06T10:14:36.773Z,1.79
2022-12-06T10:17:15.796Z,1.93
2022-12-06T10:19:56.016Z,1.90
2022-12-06T10:22:41.389Z,1.92
2022-12-06T10:25:14.720Z,1.74
2022-12-06T10:27:50.466Z,1.66
2022-12-06T10:30:19.035Z,1.49
2022-12-06T10:32:53.979Z,1.85
2022-12-06T10:35:41.701Z,1.82
2022-12-06T10:38:25.415Z,1.83
2022-12-06T10:41:04.398Z,1.81
2022-12-06T10:43:41.934Z,1.80
2022-12-06T10:46:32.927Z,1.62
2022-12-06T10:49:07.846Z,1.82
2022-12-06T10:51:43.086Z,1.75
2022-12-06T10:54:23.389Z,1.90
2022-12-06T10:56:54.748Z,1.17
2022-12-06T10:59:31.275Z,1.82
2022-12-06T11:02:03.994Z,1.83
2022-12-06T11:04:35.765Z,1.83
2022-12-06T11:07:09.744Z,1.81
2022-12-06T11:09:42.766Z,1.85
2022-12-06T11:12:29.525Z,1.87
2022-12-06T11:15:05.597Z,1.87
2022-12-06T11:17:43.928Z,1.90
2022-12-06T11:20:24.155Z,1.91
2022-12-06T11:23:06.033Z,1.87
2022-12-06T11:25:44.520Z,1.88
2022-12-06T11:28:25.647Z,1.85
2022-12-06T11:30:57.581Z,1.87
2022-12-06T11:33:31.058Z,1.72
2022-12-06T11:36:03.000Z,1.84
2022-12-06T11:38:32.004Z,1.26
2022-12-06T11:41:02.564Z,1.82
2022-12-06T11:43:35.481Z,1.79
2022-12-06T11:46:05.734Z,1.79
2022-12-06T11:48:36.353Z,1.82
2022-12-06T11:51:05.059Z,1.84
2022-12-06T11:53:36.818Z,1.85
2022-12-06T11:56:16.496Z,1.18
2022-12-06T11:59:00.172Z,1.53
2022-12-06T12:01:39.503Z,1.75
2022-12-06T12:04:26.633Z,1.74
2022-12-06T12:07:00.841Z,1.73
2022-12-06T12:09:32.159Z,1.76
2022-12-06T12:12:05.473Z,1.79
2022-12-06T12:14:39.955Z,1.75
2022-12-06T12:17:18.041Z,1.69
2022-12-06T12:19:52.160Z,1.44
2022-12-06T12:22:31.697Z,1.33
2022-12-06T12:25:18.375Z,1.62
2022-12-06T12:27:51.177Z,1.62
2022-12-06T12:30:31.581Z,1.71
2022-12-06T12:33:20.087Z,1.73
2022-12-06T12:35:50.526Z,1.74
2022-12-06T12:38:26.808Z,1.51
2022-12-06T12:40:58.146Z,1.71
2022-12-06T12:43:31.745Z,1.67
2022-12-06T12:46:18.005Z,1.69
2022-12-06T12:48:48.861Z,1.68
2022-12-06T12:51:29.726Z,1.73
2022-12-06T12:54:01.110Z,1.76
2022-12-06T12:56:33.717Z,1.81
2022-12-06T12:59:07.890Z,1.74
2022-12-06T13:01:45.307Z,1.70
2022-12-06T13:04:19.866Z,1.86
2022-12-06T13:06:52.261Z,1.79
2022-12-06T13:09:27.825Z,1.90
2022-12-06T13:11:59.583Z,1.70
2022-12-06T13:14:30.687Z,1.86
2022-12-06T13:17:04.694Z,1.86
2022-12-06T13:19:37.626Z,1.78
2022-12-06T13:22:07.868Z,1.89
2022-12-06T13:24:39.199Z,1.88
2022-12-06T13:27:14.839Z,1.86
2022-12-06T13:29:48.446Z,1.79
2022-12-06T13:32:20.386Z,1.79
2022-12-06T13:34:53.082Z,1.78
2022-12-06T13:37:35.376Z,1.56
2022-12-06T13:40:06.975Z,1.73
2022-12-06T13:42:45.726Z,1.70
2022-12-06T13:45:42.431Z,1.63
2022-12-06T13:48:37.430Z,1.58
2022-12-06T13:51:12.055Z,1.55
2022-12-06T13:54:13.959Z,1.55
2022-12-06T13:56:43.124Z,1.51
2022-12-06T13:59:38.026Z,1.45
2022-12-06T14:02:51.332Z,1.43
2022-12-06T14:06:13.881Z,1.45
2022-12-06T14:08:47.493Z,1.39
2022-12-06T14:11:25.569Z,1.39
2022-12-06T14:14:08.828Z,1.34
2022-12-06T14:16:41.236Z,1.33
2022-12-06T14:19:18.984Z,1.26
2022-12-06T14:21:55.299Z,1.23
2022-12-06T14:24:34.569Z,1.23
2022-12-06T14:27:08.453Z,1.24
2022-12-06T14:29:36.997Z,1.16
2022-12-06T14:32:05.121Z,1.20
2022-12-06T14:34:36.168Z,1.17
2022-12-06T14:37:14.411Z,0.82
2022-12-06T14:39:52.517Z,1.15
2022-12-06T14:42:39.174Z,0.93
2022-12-06T14:45:15.937Z,1.11
2022-12-06T14:47:45.586Z,0.71
2022-12-06T14:50:32.266Z,1.10
2022-12-06T14:53:04.530Z,1.08
2022-12-06T14:55:38.722Z,1.06
2022-12-06T14:58:18.094Z,1.03
2022-12-06T15:00:53.930Z,1.01
2022-12-06T15:03:29.124Z,0.99
2022-12-06T15:06:14.424Z,0.96
2022-12-06T15:08:44.309Z,0.98
2022-12-06T15:11:50.379Z,0.97
2022-12-06T15:14:19.847Z,0.95
2022-12-06T15:16:59.581Z,0.95
2022-12-06T15:19:27.873Z,0.94
2022-12-06T15:21:56.444Z,0.96
2022-12-06T15:24:26.776Z,0.70
2022-12-06T15:26:56.673Z,0.93
2022-12-06T15:29:25.100Z,0.89
2022-12-06T15:31:56.017Z,0.90
2022-12-06T15:34:26.834Z,0.91
2022-12-06T15:37:22.234Z,0.90
2022-12-06T15:39:44.903Z,0.92
2022-12-06T15:42:21.552Z,0.88
2022-12-06T15:44:50.721Z,0.78
2022-12-06T15:47:20.560Z,0.61
2022-12-06T15:49:51.053Z,0.84
2022-12-06T15:52:25.066Z,0.46
2022-12-06T15:54:53.614Z,0.90
2022-12-06T15:57:23.833Z,0.63
2022-12-06T15:59:51.905Z,0.77
2022-12-06T16:02:20.701Z,0.87
2022-12-06T16:04:51.024Z,0.89
2022-12-06T16:07:19.777Z,0.86
2022-12-06T16:09:48.582Z,0.73
2022-12-06T16:12:18.079Z,0.39
2022-12-06T16:14:48.162Z,0.80
2022-12-06T16:17:16.957Z,0.84
2022-12-06T16:20:02.525Z,0.86
2022-12-06T16:22:48.531Z,0.81
2022-12-06T16:25:16.628Z,0.75
2022-12-06T16:27:45.030Z,0.77
2022-12-06T16:30:18.554Z,0.83
2022-12-06T16:32:46.979Z,0.81
2022-12-06T16:35:15.145Z,0.79
2022-12-06T16:37:43.580Z,0.76
2022-12-06T16:40:19.985Z,-0.12
2022-12-06T16:42:48.693Z,0.80
2022-12-06T16:45:19.016Z,0.82
2022-12-06T16:47:48.854Z,0.88
2022-12-06T16:50:23.595Z,0.91
2022-12-06T16:52:53.049Z,0.97
2022-12-06T16:55:21.509Z,0.99
2022-12-06T16:57:49.911Z,0.99
2022-12-06T17:00:20.251Z,0.93
2022-12-06T17:02:48.841Z,0.98
2022-12-06T17:05:20.153Z,0.99
2022-12-06T17:07:48.640Z,1.00
2022-12-06T17:10:18.297Z,0.99
2022-12-06T17:12:48.764Z,0.85
2022-12-06T17:15:20.784Z,0.90
2022-12-06T17:17:49.621Z,0.91
2022-12-06T17:20:19.042Z,0.85
2022-12-06T17:22:48.232Z,0.96
2022-12-06T17:25:17.328Z,0.79
2022-12-06T17:27:45.705Z,0.99
2022-12-06T17:30:18.037Z,0.98
2022-12-06T17:32:48.744Z,0.97
2022-12-06T17:35:16.989Z,0.95
2022-12-06T17:37:46.340Z,0.98
2022-12-06T17:40:20.355Z,0.99
2022-12-06T17:42:59.756Z,1.03
2022-12-06T17:45:27.964Z,1.04
2022-12-06T17:47:58.112Z,0.90
2022-12-06T17:50:26.515Z,0.96
2022-12-06T17:52:54.934Z,0.91
2022-12-06T17:55:23.336Z,0.89
2022-12-06T17:57:52.111Z,0.91
2022-12-06T18:00:20.753Z,0.87
2022-12-06T18:02:49.463Z,0.56
2022-12-06T18:05:20.366Z,0.61
2022-12-06T18:07:48.850Z,0.90
2022-12-06T18:10:17.281Z,0.90
2022-12-06T18:12:47.099Z,0.89
2022-12-06T18:15:28.831Z,0.85
2022-12-06T18:17:57.372Z,0.77
2022-12-06T18:20:27.099Z,0.84
2022-12-06T18:22:55.513Z,0.63
2022-12-06T18:25:24.110Z,0.90
2022-12-06T18:27:52.797Z,0.91
2022-12-06T18:30:21.063Z,0.69
2022-12-06T18:32:49.541Z,0.93
2022-12-06T18:35:17.735Z,0.96
2022-12-06T18:37:47.510Z,0.97
2022-12-06T18:40:16.184Z,0.96
2022-12-06T18:42:44.597Z,0.93
2022-12-06T18:45:12.800Z,0.97
2022-12-06T18:47:41.450Z,0.95
2022-12-06T18:50:10.544Z,0.96
2022-12-06T18:52:39.219Z,0.95
2022-12-06T18:55:15.107Z,0.95
2022-12-06T18:57:43.794Z,0.93
2022-12-06T19:00:13.763Z,0.93
2022-12-06T19:02:42.548Z,0.93
2022-12-06T19:05:10.950Z,0.83
2022-12-06T19:07:39.441Z,0.94
2022-12-06T19:10:11.317Z,0.94
2022-12-06T19:12:42.710Z,0.93
2022-12-06T19:15:11.852Z,0.74
2022-12-06T19:17:39.996Z,0.96
2022-12-06T19:20:09.300Z,0.94
2022-12-06T19:22:39.246Z,0.95
2022-12-06T19:25:11.852Z,0.81
2022-12-06T19:27:43.382Z,0.96
2022-12-06T19:30:12.616Z,0.76
2022-12-06T19:32:40.822Z,1.00
2022-12-06T19:35:10.801Z,0.98
2022-12-06T19:37:39.193Z,0.96
2022-12-06T19:40:08.901Z,0.91
2022-12-06T19:42:56.614Z,0.87
2022-12-06T19:45:25.528Z,0.89
2022-12-06T19:47:54.288Z,0.92
2022-12-06T19:50:25.686Z,0.94
2022-12-06T19:52:56.693Z,0.96
2022-12-06T19:55:24.791Z,0.81
2022-12-06T19:57:55.262Z,1.02
2022-12-06T20:00:23.912Z,0.99
2022-12-06T20:02:52.550Z,0.87
2022-12-06T20:05:20.994Z,0.98
2022-12-06T20:07:49.411Z,0.91
2022-12-06T20:10:17.569Z,0.97
2022-12-06T20:12:47.254Z,0.96
2022-12-06T20:15:16.834Z,0.90
2022-12-06T20:17:45.463Z,0.92
2022-12-06T20:20:14.792Z,0.91
2022-12-06T20:22:43.236Z,0.96
2022-12-06T20:25:11.508Z,1.00
2022-12-06T20:27:53.497Z,0.98
2022-12-06T20:30:24.857Z,0.99
2022-12-06T20:32:54.719Z,1.03
2022-12-06T20:35:24.111Z,1.05
2022-12-06T20:37:53.339Z,1.00
2022-12-06T20:40:28.311Z,1.05
2022-12-06T20:42:59.497Z,1.05
2022-12-06T20:45:32.410Z,1.05
2022-12-06T20:48:01.094Z,1.00
2022-12-06T20:50:29.601Z,1.07
2022-12-06T20:52:58.129Z,1.04
2022-12-06T20:55:26.344Z,1.03
2022-12-06T20:57:54.830Z,1.00
2022-12-06T21:00:23.865Z,1.02
2022-12-06T21:02:53.738Z,1.03
2022-12-06T21:05:22.193Z,0.91
2022-12-06T21:07:50.862Z,0.93
2022-12-06T21:10:19.111Z,0.86
2022-12-06T21:12:48.212Z,0.77
2022-12-06T21:15:19.502Z,1.01
2022-12-06T21:17:47.910Z,1.03
2022-12-06T21:20:18.048Z,0.83
2022-12-06T21:22:48.666Z,1.10
2022-12-06T21:25:16.859Z,1.12
2022-12-06T21:27:45.195Z,1.12
2022-12-06T21:30:15.100Z,1.09
2022-12-06T21:32:43.462Z,1.07
2022-12-06T21:35:11.666Z,1.07
2022-12-06T21:37:41.521Z,1.13
2022-12-06T21:40:09.808Z,1.13
2022-12-06T21:42:38.869Z,1.15
2022-12-06T21:45:07.688Z,1.11
2022-12-06T21:47:36.085Z,1.10
2022-12-06T21:50:04.692Z,1.08
2022-12-06T21:52:33.302Z,0.96
2022-12-06T21:55:05.715Z,1.09
2022-12-06T21:57:34.781Z,1.07
2022-12-06T22:00:03.857Z,1.14
2022-12-06T22:02:32.880Z,1.14
2022-12-06T22:05:01.137Z,1.18
2022-12-06T22:07:29.630Z,1.18
2022-12-06T22:09:58.957Z,1.12
2022-12-06T22:12:28.890Z,1.12
2022-12-06T22:14:56.995Z,1.16
2022-12-06T22:17:25.612Z,1.17
2022-12-06T22:19:53.774Z,1.16
2022-12-06T22:22:22.176Z,1.19
2022-12-06T22:24:50.544Z,1.18
2022-12-06T22:27:19.045Z,1.21
2022-12-06T22:29:49.038Z,0.94
2022-12-06T22:32:17.676Z,1.20
2022-12-06T22:34:45.744Z,0.65
2022-12-06T22:37:14.159Z,1.24
2022-12-06T22:39:42.451Z,1.27
2022-12-06T22:42:10.863Z,1.26
2022-12-06T22:44:39.114Z,1.32
2022-12-06T22:47:09.085Z,1.24
2022-12-06T22:49:37.330Z,1.31
2022-12-06T22:52:05.812Z,1.26
2022-12-06T22:54:34.279Z,1.24
2022-12-06T22:57:02.655Z,1.25
2022-12-06T22:59:30.721Z,1.25
2022-12-06T23:01:59.213Z,1.26
2022-12-06T23:04:28.889Z,1.25
2022-12-06T23:06:57.232Z,1.24
2022-12-06T23:09:25.851Z,1.22
2022-12-06T23:11:54.354Z,0.79
2022-12-06T23:14:22.792Z,0.80
2022-12-06T23:16:51.671Z,1.19
2022-12-06T23:19:19.860Z,1.23
2022-12-06T23:21:49.636Z,1.17
2022-12-06T23:24:17.725Z,1.25
2022-12-06T23:26:50.800Z,1.13
2022-12-06T23:29:22.788Z,1.16
2022-12-06T23:31:51.294Z,1.31
2022-12-06T23:34:22.506Z,1.31
2022-12-06T23:36:52.395Z,1.31
2022-12-06T23:39:20.872Z,1.34
2022-12-06T23:41:49.691Z,1.35
2022-12-06T23:44:17.811Z,1.31
2022-12-06T23:46:46.316Z,0.98
2022-12-06T23:49:18.067Z,1.35
2022-12-06T23:51:47.275Z,1.36
2022-12-06T23:54:18.862Z,0.71
2022-12-06T23:56:47.818Z,1.05
2022-12-06T23:59:17.277Z,1.31
